createdAt,value
2018-02-18T00:01:14.048Z,9.17
2018-02-18T00:03:40.643Z,9.27
2018-02-18T00:06:07.248Z,9.50
2018-02-18T00:08:33.855Z,9.90
2018-02-18T00:11:00.459Z,9.80
2018-02-18T00:13:27.059Z,9.17
2018-02-18T00:15:53.659Z,10.03
2018-02-18T00:18:20.264Z,10.00
2018-02-18T00:20:46.876Z,9.77
2018-02-18T00:23:13.491Z,10.17
2018-02-18T00:25:40.092Z,9.50
2018-02-18T00:28:06.688Z,9.83
2018-02-18T00:30:33.283Z,9.47
2018-02-18T00:32:59.907Z,9.67
2018-02-18T00:35:26.487Z,10.10
2018-02-18T00:37:53.087Z,9.67
2018-02-18T00:40:19.688Z,8.87
2018-02-18T00:42:46.280Z,9.43
2018-02-18T00:45:12.889Z,9.70
2018-02-18T00:47:39.483Z,9.37
2018-02-18T00:50:06.083Z,8.67
2018-02-18T00:52:32.688Z,9.40
2018-02-18T00:54:59.279Z,9.53
2018-02-18T00:57:25.892Z,9.70
2018-02-18T00:59:52.489Z,9.57
2018-02-18T01:02:19.083Z,9.60
2018-02-18T01:04:45.692Z,9.03
2018-02-18T01:07:12.288Z,9.70
2018-02-18T01:09:38.903Z,9.90
2018-02-18T01:12:05.576Z,9.30
2018-02-18T01:14:32.168Z,10.10
2018-02-18T01:16:58.814Z,9.90
2018-02-18T01:19:25.395Z,9.90
2018-02-18T01:21:51.995Z,9.47
2018-02-18T01:24:18.596Z,9.40
2018-02-18T01:26:45.200Z,9.20
2018-02-18T01:29:11.804Z,10.00
2018-02-18T01:31:38.399Z,8.90
2018-02-18T01:34:05.012Z,10.40
2018-02-18T01:36:31.604Z,9.70
2018-02-18T01:38:58.200Z,9.03
2018-02-18T01:41:24.803Z,9.37
2018-02-18T01:43:51.400Z,10.30
2018-02-18T01:46:18.015Z,10.13
2018-02-18T01:48:44.627Z,10.40
2018-02-18T01:51:11.216Z,9.30
2018-02-18T01:53:37.807Z,9.93
2018-02-18T01:56:04.415Z,9.77
2018-02-18T01:58:31.014Z,9.90
2018-02-18T02:00:57.604Z,9.33
2018-02-18T02:03:24.223Z,9.70
2018-02-18T02:05:50.800Z,9.37
2018-02-18T02:08:17.392Z,9.60
2018-02-18T02:10:43.999Z,9.50
2018-02-18T02:13:10.592Z,9.57
2018-02-18T02:15:37.187Z,9.80
2018-02-18T02:18:03.799Z,10.17
2018-02-18T02:20:30.396Z,10.40
2018-02-18T02:22:57.007Z,10.10
2018-02-18T02:25:23.600Z,9.83
2018-02-18T02:27:50.201Z,10.27
2018-02-18T02:30:16.796Z,10.17
2018-02-18T02:32:43.408Z,10.00
2018-02-18T02:35:10.013Z,10.50
2018-02-18T02:37:36.603Z,9.90
2018-02-18T02:40:03.218Z,11.10
2018-02-18T02:42:29.815Z,10.30
2018-02-18T02:44:56.411Z,10.70
2018-02-18T02:47:23.035Z,10.70
2018-02-18T02:49:49.636Z,10.03
2018-02-18T02:52:16.312Z,11.00
2018-02-18T02:54:42.850Z,10.60
2018-02-18T02:57:09.444Z,10.97
2018-02-18T02:59:36.057Z,11.07
2018-02-18T03:02:02.654Z,11.17
2018-02-18T03:04:29.249Z,11.10
2018-02-18T03:06:55.851Z,10.43
2018-02-18T03:09:22.452Z,11.20
2018-02-18T03:11:49.064Z,10.13
2018-02-18T03:14:15.662Z,11.50
2018-02-18T03:16:42.260Z,11.37
2018-02-18T03:19:08.867Z,11.10
2018-02-18T03:21:35.461Z,10.90
2018-02-18T03:24:02.079Z,10.83
2018-02-18T03:26:28.671Z,11.23
2018-02-18T03:28:55.263Z,11.77
2018-02-18T03:31:21.874Z,11.40
2018-02-18T03:33:48.471Z,11.83
2018-02-18T03:36:15.294Z,11.27
2018-02-18T03:38:41.875Z,11.37
2018-02-18T03:41:08.501Z,12.07
2018-02-18T03:43:35.087Z,11.13
2018-02-18T03:46:01.683Z,11.80
2018-02-18T03:48:28.312Z,12.10
2018-02-18T03:50:54.903Z,12.40
2018-02-18T03:53:21.504Z,12.53
2018-02-18T03:55:48.104Z,11.80
2018-02-18T03:58:14.715Z,12.50
2018-02-18T04:00:41.326Z,11.80
2018-02-18T04:03:07.915Z,12.57
2018-02-18T04:05:34.520Z,12.13
2018-02-18T04:08:01.130Z,12.10
2018-02-18T04:10:27.723Z,12.70
2018-02-18T04:12:54.333Z,12.40
2018-02-18T04:15:20.928Z,11.80
2018-02-18T04:17:47.539Z,13.10
2018-02-18T04:20:14.142Z,13.40
2018-02-18T04:22:40.743Z,12.60
2018-02-18T04:25:07.352Z,13.10
2018-02-18T04:27:33.948Z,13.40
2018-02-18T04:30:00.543Z,13.07
2018-02-18T04:32:27.150Z,12.80
2018-02-18T04:34:53.748Z,12.70
2018-02-18T04:37:20.360Z,13.77
2018-02-18T04:39:46.963Z,12.83
2018-02-18T04:42:13.552Z,13.13
2018-02-18T04:44:40.193Z,12.97
2018-02-18T04:47:06.751Z,12.53
2018-02-18T04:49:33.358Z,11.80
2018-02-18T04:51:59.950Z,13.30
2018-02-18T04:54:26.556Z,12.00
2018-02-18T04:56:53.150Z,12.37
2018-02-18T04:59:19.743Z,13.07
2018-02-18T05:01:46.355Z,13.10
2018-02-18T05:04:12.957Z,12.70
2018-02-18T05:06:39.551Z,12.90
2018-02-18T05:09:06.150Z,12.97
2018-02-18T05:11:32.759Z,12.27
2018-02-18T05:13:59.372Z,13.97
2018-02-18T05:16:25.963Z,12.27
2018-02-18T05:18:52.560Z,12.77
2018-02-18T05:21:19.161Z,12.40
2018-02-18T05:23:45.752Z,13.67
2018-02-18T05:26:12.364Z,13.47
2018-02-18T05:28:38.960Z,12.60
2018-02-18T05:31:05.550Z,12.73
2018-02-18T05:33:32.164Z,13.00
2018-02-18T05:35:58.763Z,13.30
2018-02-18T05:38:25.369Z,13.40
2018-02-18T05:40:52.005Z,13.37
2018-02-18T05:43:18.548Z,14.23
2018-02-18T05:45:45.167Z,13.70
2018-02-18T05:48:11.768Z,13.60
2018-02-18T05:50:38.380Z,12.90
2018-02-18T05:53:04.981Z,14.37
2018-02-18T05:55:31.578Z,14.80
2018-02-18T05:57:59.023Z,14.97
2018-02-18T06:00:25.624Z,15.40
2018-02-18T06:02:52.231Z,14.40
2018-02-18T06:05:18.827Z,12.63
2018-02-18T06:07:45.429Z,13.83
2018-02-18T06:10:12.034Z,13.47
2018-02-18T06:12:38.622Z,13.80
2018-02-18T06:15:05.245Z,14.60
2018-02-18T06:17:31.849Z,14.87
2018-02-18T06:19:58.443Z,15.00
2018-02-18T06:22:25.060Z,14.47
2018-02-18T06:24:51.660Z,14.03
2018-02-18T06:27:18.273Z,15.40
2018-02-18T06:29:44.868Z,15.47
2018-02-18T06:32:11.464Z,16.73
2018-02-18T06:34:38.068Z,14.77
2018-02-18T06:37:04.675Z,15.30
2018-02-18T06:39:31.289Z,14.37
2018-02-18T06:41:57.884Z,15.33
2018-02-18T06:44:24.479Z,15.30
2018-02-18T06:46:51.084Z,15.93
2018-02-18T06:49:17.679Z,14.80
2018-02-18T06:51:44.291Z,15.60
2018-02-18T06:54:10.894Z,15.60
2018-02-18T06:56:37.486Z,15.00
2018-02-18T06:59:04.089Z,14.80
2018-02-18T07:01:30.684Z,15.37
2018-02-18T07:03:57.294Z,15.70
2018-02-18T07:06:23.892Z,16.57
2018-02-18T07:08:50.606Z,15.47
2018-02-18T07:11:17.195Z,16.60
2018-02-18T07:13:43.815Z,16.07
2018-02-18T07:16:10.416Z,15.80
2018-02-18T07:18:37.006Z,15.27
2018-02-18T07:21:03.607Z,16.90
2018-02-18T07:23:30.220Z,16.30
2018-02-18T07:25:56.810Z,18.33
2018-02-18T07:28:23.419Z,19.07
2018-02-18T07:30:50.155Z,18.00
2018-02-18T07:33:16.739Z,18.30
2018-02-18T07:35:43.345Z,18.47
2018-02-18T07:38:09.948Z,16.63
2018-02-18T07:40:36.560Z,16.23
2018-02-18T07:43:03.156Z,17.37
2018-02-18T07:45:29.763Z,15.90
2018-02-18T07:47:56.367Z,16.27
2018-02-18T07:50:23.027Z,17.50
2018-02-18T07:52:49.652Z,16.80
2018-02-18T07:55:16.238Z,16.20
2018-02-18T07:57:43.768Z,17.63
2018-02-18T08:00:10.379Z,15.90
2018-02-18T08:02:36.984Z,17.20
2018-02-18T08:05:03.599Z,16.83
2018-02-18T08:07:30.190Z,17.00
2018-02-18T08:09:56.784Z,17.33
2018-02-18T08:12:23.443Z,16.23
2018-02-18T08:14:50.048Z,17.30
2018-02-18T08:17:16.682Z,16.80
2018-02-18T08:19:43.291Z,17.03
2018-02-18T08:22:09.892Z,17.70
2018-02-18T08:24:36.490Z,17.57
2018-02-18T08:27:03.091Z,17.33
2018-02-18T08:29:29.728Z,18.40
2018-02-18T08:31:56.347Z,18.87
2018-02-18T08:34:22.988Z,17.30
2018-02-18T08:36:49.624Z,17.87
2018-02-18T08:39:16.215Z,17.60
2018-02-18T08:41:42.825Z,18.90
2018-02-18T08:44:09.432Z,18.20
2018-02-18T08:46:36.046Z,17.80
2018-02-18T08:49:02.644Z,20.67
2018-02-18T08:51:29.245Z,18.50
2018-02-18T08:53:55.851Z,18.80
2018-02-18T08:56:22.448Z,16.77
2018-02-18T08:58:49.046Z,17.67
2018-02-18T09:01:15.656Z,18.60
2018-02-18T09:03:42.299Z,19.13
2018-02-18T09:06:08.880Z,18.83
2018-02-18T09:08:35.492Z,19.33
2018-02-18T09:11:02.085Z,18.00
2018-02-18T09:13:28.687Z,18.70
2018-02-18T09:15:55.300Z,17.93
2018-02-18T09:18:21.900Z,18.20
2018-02-18T09:20:48.533Z,18.40
2018-02-18T09:23:15.131Z,18.63
2018-02-18T09:25:41.724Z,18.70
2018-02-18T09:28:08.351Z,18.40
2018-02-18T09:30:34.920Z,17.37
2018-02-18T09:33:01.527Z,18.20
2018-02-18T09:35:28.136Z,17.40
2018-02-18T09:37:54.752Z,18.63
2018-02-18T09:40:21.365Z,18.83
2018-02-18T09:42:47.961Z,18.70
2018-02-18T09:45:14.703Z,17.73
2018-02-18T09:47:41.299Z,18.00
2018-02-18T09:50:07.916Z,16.53
2018-02-18T09:52:34.516Z,17.90
2018-02-18T09:55:01.119Z,18.70
2018-02-18T09:57:27.714Z,17.30
2018-02-18T09:59:54.324Z,17.00
2018-02-18T10:02:20.919Z,15.43
2018-02-18T10:04:47.515Z,16.33
2018-02-18T10:07:14.123Z,15.33
2018-02-18T10:09:40.724Z,15.80
2018-02-18T10:12:07.340Z,17.60
2018-02-18T10:14:33.978Z,17.00
2018-02-18T10:17:00.568Z,17.20
2018-02-18T10:19:27.182Z,15.70
2018-02-18T10:21:53.776Z,17.23
2018-02-18T10:24:20.396Z,16.30
2018-02-18T10:26:47.033Z,16.70
2018-02-18T10:29:13.633Z,17.00
2018-02-18T10:31:40.258Z,17.10
2018-02-18T10:34:06.856Z,16.57
2018-02-18T10:36:33.486Z,20.67
2018-02-18T10:39:00.095Z,17.20
2018-02-18T10:41:26.701Z,16.27
2018-02-18T10:43:53.350Z,16.67
2018-02-18T10:46:19.951Z,17.07
2018-02-18T10:48:46.590Z,17.20
2018-02-18T10:51:13.191Z,16.30
2018-02-18T10:53:39.799Z,16.93
2018-02-18T10:56:06.407Z,16.50
2018-02-18T10:58:33.009Z,15.60
2018-02-18T11:00:59.611Z,14.93
2018-02-18T11:03:26.212Z,16.20
2018-02-18T11:05:52.804Z,15.50
2018-02-18T11:08:19.442Z,17.03
2018-02-18T11:10:46.035Z,16.50
2018-02-18T11:13:12.656Z,15.87
2018-02-18T11:15:39.592Z,14.00
2018-02-18T11:18:07.171Z,12.60
2018-02-18T11:20:33.778Z,12.97
2018-02-18T11:23:00.385Z,14.40
2018-02-18T11:25:27.002Z,14.23
2018-02-18T11:27:53.596Z,12.90
2018-02-18T11:30:20.219Z,13.93
2018-02-18T11:32:46.824Z,14.70
2018-02-18T11:35:13.426Z,14.80
2018-02-18T11:37:40.048Z,13.53
2018-02-18T11:40:06.644Z,13.30
2018-02-18T11:42:33.244Z,14.40
2018-02-18T11:44:59.859Z,13.30
2018-02-18T11:47:26.460Z,12.93
2018-02-18T11:49:53.070Z,13.87
2018-02-18T11:52:19.700Z,14.33
2018-02-18T11:54:46.291Z,13.10
2018-02-18T11:57:12.896Z,14.27
2018-02-18T11:59:39.561Z,14.27
2018-02-18T12:02:06.210Z,13.70
2018-02-18T12:04:32.791Z,13.37
2018-02-18T12:06:59.392Z,14.57
2018-02-18T12:09:25.996Z,13.93
2018-02-18T12:11:52.650Z,14.90
2018-02-18T12:14:19.215Z,13.23
2018-02-18T12:16:45.842Z,14.87
2018-02-18T12:19:12.439Z,13.83
2018-02-18T12:21:39.821Z,13.40
2018-02-18T12:24:06.420Z,13.70
2018-02-18T12:26:33.052Z,13.40
2018-02-18T12:28:59.658Z,13.30
2018-02-18T12:31:26.251Z,14.10
2018-02-18T12:33:52.887Z,13.77
2018-02-18T12:36:19.512Z,14.00
2018-02-18T12:38:46.132Z,13.33
2018-02-18T12:41:12.728Z,14.70
2018-02-18T12:43:39.325Z,12.33
2018-02-18T12:46:05.928Z,13.57
2018-02-18T12:48:32.533Z,13.53
2018-02-18T12:50:59.144Z,13.43
2018-02-18T12:53:25.756Z,13.30
2018-02-18T12:55:52.353Z,13.20
2018-02-18T12:58:18.956Z,13.00
2018-02-18T13:00:45.563Z,13.73
2018-02-18T13:03:12.180Z,13.20
2018-02-18T13:05:38.808Z,13.30
2018-02-18T13:08:05.408Z,14.23
2018-02-18T13:10:32.015Z,13.50
2018-02-18T13:12:58.651Z,13.70
2018-02-18T13:15:25.300Z,12.47
2018-02-18T13:17:51.908Z,13.30
2018-02-18T13:20:18.503Z,13.50
2018-02-18T13:22:45.104Z,11.43
2018-02-18T13:25:11.737Z,12.70
2018-02-18T13:27:38.312Z,12.57
2018-02-18T13:30:04.909Z,12.40
2018-02-18T13:32:31.585Z,12.00
2018-02-18T13:34:58.123Z,12.37
2018-02-18T13:37:24.794Z,13.10
2018-02-18T13:39:51.398Z,11.80
2018-02-18T13:42:17.991Z,11.20
2018-02-18T13:44:44.595Z,10.83
2018-02-18T13:47:11.202Z,10.70
2018-02-18T13:49:37.817Z,11.27
2018-02-18T13:52:04.416Z,10.23
2018-02-18T13:54:31.037Z,11.40
2018-02-18T13:56:57.640Z,10.47
2018-02-18T13:59:24.235Z,10.50
2018-02-18T14:01:50.840Z,9.27
2018-02-18T14:04:17.437Z,8.93
2018-02-18T14:06:44.048Z,9.90
2018-02-18T14:09:10.639Z,9.43
2018-02-18T14:11:37.243Z,9.27
2018-02-18T14:14:03.844Z,8.40
2018-02-18T14:16:30.440Z,9.07
2018-02-18T14:18:57.042Z,8.77
2018-02-18T14:21:23.639Z,9.70
2018-02-18T14:23:50.257Z,8.93
2018-02-18T14:26:16.860Z,9.20
2018-02-18T14:28:43.469Z,9.70
2018-02-18T14:31:10.092Z,9.10
2018-02-18T14:33:36.672Z,9.70
2018-02-18T14:36:03.279Z,9.37
2018-02-18T14:38:29.868Z,7.80
2018-02-18T14:40:56.492Z,8.33
2018-02-18T14:43:29.088Z,7.20
2018-02-18T14:46:01.591Z,7.90
2018-02-18T14:48:33.911Z,7.70
2018-02-18T14:51:06.560Z,6.80
2018-02-18T14:53:39.072Z,8.03
2018-02-18T14:56:23.336Z,7.23
2018-02-18T14:58:49.928Z,8.23
2018-02-18T15:01:16.549Z,7.70
2018-02-18T15:03:43.140Z,8.77
2018-02-18T15:06:09.739Z,8.00
2018-02-18T15:08:36.340Z,8.23
2018-02-18T15:11:02.936Z,9.40
2018-02-18T15:13:29.558Z,8.50
2018-02-18T15:15:56.149Z,7.50
2018-02-18T15:18:22.744Z,9.13
2018-02-18T15:20:49.339Z,8.70
2018-02-18T15:23:15.953Z,8.80
2018-02-18T15:25:42.548Z,8.37
2018-02-18T15:28:09.144Z,8.40
2018-02-18T15:30:35.764Z,8.37
2018-02-18T15:33:02.362Z,8.83
2018-02-18T15:35:28.957Z,8.70
2018-02-18T15:37:55.594Z,8.50
2018-02-18T15:40:22.167Z,9.30
2018-02-18T15:42:48.760Z,8.97
2018-02-18T15:45:15.356Z,9.10
2018-02-18T15:47:41.976Z,8.70
2018-02-18T15:50:08.572Z,8.00
2018-02-18T15:52:35.176Z,8.67
2018-02-18T15:55:01.771Z,9.90
2018-02-18T15:57:28.356Z,9.47
2018-02-18T15:59:54.967Z,9.20
2018-02-18T16:02:21.573Z,8.70
2018-02-18T16:04:48.192Z,10.50
2018-02-18T16:07:14.799Z,10.03
2018-02-18T16:09:41.395Z,9.57
2018-02-18T16:12:07.999Z,10.97
2018-02-18T16:14:34.596Z,10.53
2018-02-18T16:17:01.200Z,11.30
2018-02-18T16:19:27.799Z,12.70
2018-02-18T16:21:54.415Z,11.10
2018-02-18T16:24:21.016Z,12.60
2018-02-18T16:26:47.620Z,11.30
2018-02-18T16:29:14.225Z,11.40
2018-02-18T16:31:40.824Z,12.10
2018-02-18T16:34:07.444Z,12.40
2018-02-18T16:36:34.035Z,12.30
2018-02-18T16:39:00.672Z,12.83
2018-02-18T16:41:27.267Z,13.13
2018-02-18T16:43:53.868Z,12.07
2018-02-18T16:46:20.469Z,12.03
2018-02-18T16:48:47.079Z,12.73
2018-02-18T16:51:13.678Z,12.30
2018-02-18T16:53:40.280Z,13.37
2018-02-18T16:56:06.900Z,12.93
2018-02-18T16:58:33.493Z,12.03
2018-02-18T17:01:00.096Z,12.30
2018-02-18T17:03:26.699Z,13.03
2018-02-18T17:05:53.292Z,13.20
2018-02-18T17:08:19.899Z,14.00
2018-02-18T17:10:46.504Z,13.77
2018-02-18T17:13:13.125Z,13.17
2018-02-18T17:15:39.727Z,13.17
2018-02-18T17:18:06.324Z,12.50
2018-02-18T17:20:32.978Z,12.63
2018-02-18T17:22:59.575Z,11.70
2018-02-18T17:25:26.175Z,12.50
2018-02-18T17:27:53.702Z,12.80
2018-02-18T17:30:20.319Z,12.90
2018-02-18T17:32:47.003Z,12.63
2018-02-18T17:35:13.616Z,12.77
2018-02-18T17:37:40.212Z,13.30
2018-02-18T17:40:06.804Z,12.53
2018-02-18T17:42:33.415Z,12.77
2018-02-18T17:45:00.019Z,12.97
2018-02-18T17:47:26.628Z,13.03
2018-02-18T17:49:53.219Z,13.50
2018-02-18T17:55:17.043Z,13.80
2018-02-18T17:57:43.664Z,14.30
2018-02-18T18:00:10.260Z,14.70
2018-02-18T18:02:36.856Z,14.77
2018-02-18T18:05:03.460Z,15.23
2018-02-18T18:07:30.068Z,15.77
2018-02-18T18:09:56.685Z,14.40
2018-02-18T18:12:23.279Z,14.37
2018-02-18T18:14:49.891Z,13.93
2018-02-18T18:17:22.389Z,14.10
2018-02-18T18:19:49.009Z,15.00
2018-02-18T18:22:15.616Z,15.40
2018-02-18T18:24:42.216Z,15.20
2018-02-18T18:27:08.823Z,16.60
2018-02-18T18:29:35.415Z,16.47
2018-02-18T18:32:02.023Z,16.90
2018-02-18T18:34:28.637Z,15.43
2018-02-18T18:36:55.240Z,15.93
2018-02-18T18:39:21.843Z,15.30
2018-02-18T18:41:48.442Z,16.63
2018-02-18T18:44:15.047Z,16.00
2018-02-18T18:46:41.665Z,16.30
2018-02-18T18:49:08.248Z,16.33
2018-02-18T18:51:34.867Z,16.47
2018-02-18T18:54:01.484Z,15.23
2018-02-18T18:56:28.071Z,15.67
2018-02-18T18:58:54.671Z,17.00
2018-02-18T19:01:21.281Z,16.13
2018-02-18T19:03:47.880Z,15.20
2018-02-18T19:06:14.484Z,15.57
2018-02-18T19:08:41.078Z,17.00
2018-02-18T19:11:07.696Z,15.87
2018-02-18T19:13:34.304Z,16.10
2018-02-18T19:16:00.900Z,16.33
2018-02-18T19:18:27.503Z,16.60
2018-02-18T19:20:54.104Z,15.97
2018-02-18T19:23:20.717Z,16.87
2018-02-18T19:25:47.312Z,16.50
2018-02-18T19:28:13.936Z,16.27
2018-02-18T19:30:40.539Z,17.13
2018-02-18T19:33:07.131Z,16.77
2018-02-18T19:35:33.743Z,17.00
2018-02-18T19:38:00.341Z,16.20
2018-02-18T19:40:26.948Z,16.30
2018-02-18T19:42:53.556Z,16.30
2018-02-18T19:45:20.187Z,16.50
2018-02-18T19:47:46.796Z,16.83
2018-02-18T19:50:13.399Z,16.97
2018-02-18T19:52:40.008Z,16.40
2018-02-18T19:55:06.604Z,16.80
2018-02-18T19:57:33.207Z,18.13
2018-02-18T19:59:59.808Z,18.20
2018-02-18T20:02:26.434Z,17.57
2018-02-18T20:04:53.027Z,17.73
2018-02-18T20:07:19.624Z,16.60
2018-02-18T20:09:46.235Z,16.60
2018-02-18T20:12:12.832Z,17.20
2018-02-18T20:14:39.432Z,15.27
2018-02-18T20:17:06.027Z,16.47
2018-02-18T20:19:32.647Z,16.20
2018-02-18T20:21:59.244Z,16.07
2018-02-18T20:24:25.840Z,15.13
2018-02-18T20:26:52.448Z,15.80
2018-02-18T20:29:19.047Z,15.23
2018-02-18T20:31:45.668Z,15.63
2018-02-18T20:34:12.259Z,15.90
2018-02-18T20:36:38.884Z,18.57
2018-02-18T20:39:05.484Z,18.53
2018-02-18T20:41:32.080Z,17.10
2018-02-18T20:43:58.691Z,15.87
2018-02-18T20:46:25.283Z,15.93
2018-02-18T20:48:51.885Z,16.90
2018-02-18T20:51:18.506Z,16.03
2018-02-18T20:53:45.104Z,15.93
2018-02-18T20:56:11.704Z,16.30
2018-02-18T20:58:38.308Z,16.50
2018-02-18T21:01:05.003Z,15.60
2018-02-18T21:03:31.583Z,16.00
2018-02-18T21:05:58.187Z,15.60
2018-02-18T21:08:24.788Z,15.77
2018-02-18T21:10:51.388Z,16.07
2018-02-18T21:13:18.001Z,16.93
2018-02-18T21:15:44.595Z,16.03
2018-02-18T21:18:11.218Z,16.30
2018-02-18T21:20:37.816Z,14.93
2018-02-18T21:23:04.419Z,16.60
2018-02-18T21:25:31.029Z,15.27
2018-02-18T21:27:57.618Z,16.50
2018-02-18T21:30:24.224Z,16.97
2018-02-18T21:32:50.828Z,16.30
2018-02-18T21:35:17.471Z,16.40
2018-02-18T21:37:44.055Z,16.50
2018-02-18T21:40:10.667Z,16.37
2018-02-18T21:42:37.279Z,15.43
2018-02-18T21:45:03.876Z,15.77
2018-02-18T21:47:30.475Z,15.87
2018-02-18T21:49:57.075Z,15.03
2018-02-18T21:52:23.684Z,16.50
2018-02-18T21:54:50.288Z,16.30
2018-02-18T21:57:16.900Z,17.23
2018-02-18T21:59:43.508Z,17.17
2018-02-18T22:02:10.096Z,17.80
2018-02-18T22:04:36.698Z,16.70
2018-02-18T22:07:03.304Z,16.50
2018-02-18T22:09:29.903Z,16.63
2018-02-18T22:11:56.500Z,18.13
2018-02-18T22:14:23.111Z,18.10
2018-02-18T22:16:49.714Z,19.53
2018-02-18T22:19:16.311Z,18.03
2018-02-18T22:21:42.919Z,18.00
2018-02-18T22:24:09.519Z,18.90
2018-02-18T22:26:36.118Z,18.50
2018-02-18T22:29:02.719Z,17.80
2018-02-18T22:31:29.329Z,17.80
2018-02-18T22:33:55.926Z,18.80
2018-02-18T22:36:22.528Z,18.10
2018-02-18T22:38:49.131Z,17.83
2018-02-18T22:41:15.729Z,18.63
2018-02-18T22:43:42.332Z,18.97
2018-02-18T22:46:08.937Z,18.63
2018-02-18T22:48:35.532Z,19.57
2018-02-18T22:51:02.136Z,18.83
2018-02-18T22:53:28.731Z,19.10
2018-02-18T22:55:55.424Z,17.60
2018-02-18T22:58:22.015Z,18.20
2018-02-18T23:00:48.640Z,18.10
2018-02-18T23:03:15.280Z,18.40
2018-02-18T23:05:47.612Z,19.20
2018-02-18T23:08:14.235Z,18.27
2018-02-18T23:10:40.843Z,17.73
2018-02-18T23:13:07.465Z,19.20
2018-02-18T23:15:34.060Z,18.53
2018-02-18T23:18:00.656Z,18.23
2018-02-18T23:20:33.001Z,18.40
2018-02-18T23:22:59.596Z,18.03
2018-02-18T23:25:26.211Z,18.60
2018-02-18T23:27:52.808Z,19.53
2018-02-18T23:30:19.440Z,17.93
2018-02-18T23:32:46.051Z,18.27
2018-02-18T23:35:12.663Z,19.20
2018-02-18T23:37:39.260Z,18.10
2018-02-18T23:40:05.860Z,18.27
2018-02-18T23:42:32.467Z,18.33
2018-02-18T23:44:59.068Z,18.73
2018-02-18T23:47:25.671Z,18.60
2018-02-18T23:49:52.275Z,19.30
2018-02-18T23:52:18.891Z,17.83
2018-02-18T23:54:45.492Z,19.83
2018-02-18T23:57:12.087Z,18.00
2018-02-18T23:59:38.692Z,18.70
